sensor_id;sensor_type;location;lat;lon;timestamp;P1;durP1;ratioP1;P2;durP2;ratioP2
48554;SDS011;34336;48.270;16.716;2024-01-07T00:02:07;11.82;;;7.80;;
48554;SDS011;34336;48.270;16.716;2024-01-07T00:04:35;11.13;;;7.53;;
48554;SDS011;34336;48.270;16.716;2024-01-07T00:07:04;11.38;;;7.78;;
48554;SDS011;34336;48.270;16.716;2024-01-07T00:09:32;11.70;;;7.30;;
48554;SDS011;34336;48.270;16.716;2024-01-07T00:11:59;9.68;;;6.80;;
48554;SDS011;34336;48.270;16.716;2024-01-07T00:14:27;10.48;;;7.38;;
48554;SDS011;34336;48.270;16.716;2024-01-07T00:16:55;11.45;;;7.85;;
48554;SDS011;34336;48.270;16.716;2024-01-07T00:19:23;14.63;;;8.10;;
48554;SDS011;34336;48.270;16.716;2024-01-07T00:21:50;10.32;;;7.55;;
48554;SDS011;34336;48.270;16.716;2024-01-07T00:24:18;9.55;;;7.00;;
48554;SDS011;34336;48.270;16.716;2024-01-07T00:26:46;9.93;;;7.00;;
48554;SDS011;34336;48.270;16.716;2024-01-07T00:29:14;10.00;;;7.00;;
48554;SDS011;34336;48.270;16.716;2024-01-07T00:31:41;12.15;;;7.28;;
48554;SDS011;34336;48.270;16.716;2024-01-07T00:34:09;11.20;;;7.40;;
48554;SDS011;34336;48.270;16.716;2024-01-07T00:36:37;11.68;;;7.80;;
48554;SDS011;34336;48.270;16.716;2024-01-07T00:39:05;11.55;;;7.10;;
48554;SDS011;34336;48.270;16.716;2024-01-07T00:41:33;10.45;;;7.15;;
48554;SDS011;34336;48.270;16.716;2024-01-07T00:44:00;11.65;;;7.65;;
48554;SDS011;34336;48.270;16.716;2024-01-07T00:46:28;10.32;;;7.38;;
48554;SDS011;34336;48.270;16.716;2024-01-07T00:48:56;11.25;;;7.30;;
48554;SDS011;34336;48.270;16.716;2024-01-07T00:51:24;10.10;;;7.13;;
48554;SDS011;34336;48.270;16.716;2024-01-07T00:53:52;10.18;;;7.20;;
48554;SDS011;34336;48.270;16.716;2024-01-07T00:56:20;11.93;;;7.85;;
48554;SDS011;34336;48.270;16.716;2024-01-07T00:58:47;11.63;;;7.60;;
48554;SDS011;34336;48.270;16.716;2024-01-07T01:01:15;10.18;;;7.20;;
48554;SDS011;34336;48.270;16.716;2024-01-07T01:03:43;11.45;;;8.30;;
48554;SDS011;34336;48.270;16.716;2024-01-07T01:06:11;12.57;;;7.30;;
48554;SDS011;34336;48.270;16.716;2024-01-07T01:08:39;9.98;;;6.63;;
48554;SDS011;34336;48.270;16.716;2024-01-07T01:11:10;11.82;;;7.38;;
48554;SDS011;34336;48.270;16.716;2024-01-07T01:13:38;11.93;;;7.47;;
48554;SDS011;34336;48.270;16.716;2024-01-07T01:16:06;10.88;;;7.30;;
48554;SDS011;34336;48.270;16.716;2024-01-07T01:18:34;11.13;;;8.02;;
48554;SDS011;34336;48.270;16.716;2024-01-07T01:21:01;11.60;;;7.13;;
48554;SDS011;34336;48.270;16.716;2024-01-07T01:23:29;12.32;;;8.43;;
48554;SDS011;34336;48.270;16.716;2024-01-07T01:25:57;11.50;;;8.00;;
48554;SDS011;34336;48.270;16.716;2024-01-07T01:28:25;12.65;;;8.15;;
48554;SDS011;34336;48.270;16.716;2024-01-07T01:30:52;11.13;;;7.47;;
48554;SDS011;34336;48.270;16.716;2024-01-07T01:33:20;12.40;;;8.10;;
48554;SDS011;34336;48.270;16.716;2024-01-07T01:35:49;12.43;;;8.38;;
48554;SDS011;34336;48.270;16.716;2024-01-07T01:38:16;14.10;;;8.98;;
48554;SDS011;34336;48.270;16.716;2024-01-07T01:40:50;13.73;;;9.18;;
48554;SDS011;34336;48.270;16.716;2024-01-07T01:43:27;11.75;;;8.48;;
48554;SDS011;34336;48.270;16.716;2024-01-07T01:45:56;12.88;;;9.20;;
48554;SDS011;34336;48.270;16.716;2024-01-07T01:48:24;14.88;;;9.68;;
48554;SDS011;34336;48.270;16.716;2024-01-07T01:50:52;14.23;;;8.93;;
48554;SDS011;34336;48.270;16.716;2024-01-07T01:53:20;16.63;;;9.23;;
48554;SDS011;34336;48.270;16.716;2024-01-07T01:55:48;16.45;;;9.75;;
48554;SDS011;34336;48.270;16.716;2024-01-07T01:58:16;12.82;;;8.95;;
48554;SDS011;34336;48.270;16.716;2024-01-07T02:00:45;13.25;;;9.52;;
48554;SDS011;34336;48.270;16.716;2024-01-07T02:03:13;14.05;;;9.55;;
48554;SDS011;34336;48.270;16.716;2024-01-07T02:05:40;15.38;;;9.50;;
48554;SDS011;34336;48.270;16.716;2024-01-07T02:08:08;15.88;;;9.82;;
48554;SDS011;34336;48.270;16.716;2024-01-07T02:10:36;16.73;;;10.73;;
48554;SDS011;34336;48.270;16.716;2024-01-07T02:13:08;17.02;;;10.57;;
48554;SDS011;34336;48.270;16.716;2024-01-07T02:15:36;17.25;;;10.63;;
48554;SDS011;34336;48.270;16.716;2024-01-07T02:18:04;18.05;;;11.23;;
48554;SDS011;34336;48.270;16.716;2024-01-07T02:20:32;17.40;;;11.02;;
48554;SDS011;34336;48.270;16.716;2024-01-07T02:23:00;17.90;;;11.25;;
48554;SDS011;34336;48.270;16.716;2024-01-07T02:25:28;17.40;;;10.88;;
48554;SDS011;34336;48.270;16.716;2024-01-07T02:27:55;16.52;;;10.75;;
48554;SDS011;34336;48.270;16.716;2024-01-07T02:30:23;18.40;;;11.02;;
48554;SDS011;34336;48.270;16.716;2024-01-07T02:32:51;21.02;;;12.68;;
48554;SDS011;34336;48.270;16.716;2024-01-07T02:35:19;17.83;;;10.75;;
48554;SDS011;34336;48.270;16.716;2024-01-07T02:37:46;18.63;;;11.50;;
48554;SDS011;34336;48.270;16.716;2024-01-07T02:40:14;19.45;;;11.82;;
48554;SDS011;34336;48.270;16.716;2024-01-07T02:42:42;18.38;;;11.32;;
48554;SDS011;34336;48.270;16.716;2024-01-07T02:45:10;17.00;;;11.20;;
48554;SDS011;34336;48.270;16.716;2024-01-07T02:47:37;19.00;;;10.95;;
48554;SDS011;34336;48.270;16.716;2024-01-07T02:50:05;17.65;;;11.65;;
48554;SDS011;34336;48.270;16.716;2024-01-07T02:52:33;18.20;;;12.27;;
48554;SDS011;34336;48.270;16.716;2024-01-07T02:55:01;18.35;;;11.88;;
48554;SDS011;34336;48.270;16.716;2024-01-07T02:57:28;18.33;;;10.68;;
48554;SDS011;34336;48.270;16.716;2024-01-07T02:59:56;19.38;;;12.13;;
48554;SDS011;34336;48.270;16.716;2024-01-07T03:02:24;18.60;;;11.95;;
48554;SDS011;34336;48.270;16.716;2024-01-07T03:04:52;19.30;;;11.68;;
48554;SDS011;34336;48.270;16.716;2024-01-07T03:07:20;17.88;;;11.18;;
48554;SDS011;34336;48.270;16.716;2024-01-07T03:09:48;20.38;;;11.57;;
48554;SDS011;34336;48.270;16.716;2024-01-07T03:12:16;18.92;;;12.10;;
48554;SDS011;34336;48.270;16.716;2024-01-07T03:14:44;22.08;;;13.95;;
48554;SDS011;34336;48.270;16.716;2024-01-07T03:17:11;17.83;;;11.77;;
48554;SDS011;34336;48.270;16.716;2024-01-07T03:19:41;21.20;;;12.85;;
48554;SDS011;34336;48.270;16.716;2024-01-07T03:22:09;20.85;;;13.20;;
48554;SDS011;34336;48.270;16.716;2024-01-07T03:24:37;19.25;;;12.82;;
48554;SDS011;34336;48.270;16.716;2024-01-07T03:27:04;18.33;;;12.48;;
48554;SDS011;34336;48.270;16.716;2024-01-07T03:29:32;19.45;;;12.43;;
48554;SDS011;34336;48.270;16.716;2024-01-07T03:32:00;21.45;;;12.43;;
48554;SDS011;34336;48.270;16.716;2024-01-07T03:34:27;19.92;;;12.98;;
48554;SDS011;34336;48.270;16.716;2024-01-07T03:36:55;20.92;;;14.15;;
48554;SDS011;34336;48.270;16.716;2024-01-07T03:39:24;20.20;;;12.38;;
48554;SDS011;34336;48.270;16.716;2024-01-07T03:41:55;19.80;;;12.38;;
48554;SDS011;34336;48.270;16.716;2024-01-07T03:44:22;19.95;;;12.20;;
48554;SDS011;34336;48.270;16.716;2024-01-07T03:46:50;21.08;;;13.35;;
48554;SDS011;34336;48.270;16.716;2024-01-07T03:49:18;21.80;;;13.95;;
48554;SDS011;34336;48.270;16.716;2024-01-07T03:51:46;21.08;;;13.55;;
48554;SDS011;34336;48.270;16.716;2024-01-07T03:54:13;23.77;;;13.70;;
48554;SDS011;34336;48.270;16.716;2024-01-07T03:56:41;20.80;;;12.63;;
48554;SDS011;34336;48.270;16.716;2024-01-07T03:59:09;22.30;;;13.30;;
48554;SDS011;34336;48.270;16.716;2024-01-07T04:01:36;20.25;;;12.52;;
48554;SDS011;34336;48.270;16.716;2024-01-07T04:04:04;21.65;;;13.57;;
48554;SDS011;34336;48.270;16.716;2024-01-07T04:06:32;22.70;;;14.50;;
48554;SDS011;34336;48.270;16.716;2024-01-07T04:09:00;19.83;;;12.65;;
48554;SDS011;34336;48.270;16.716;2024-01-07T04:11:29;22.92;;;13.48;;
48554;SDS011;34336;48.270;16.716;2024-01-07T04:13:57;22.27;;;12.77;;
48554;SDS011;34336;48.270;16.716;2024-01-07T04:16:25;21.52;;;14.13;;
48554;SDS011;34336;48.270;16.716;2024-01-07T04:18:53;19.75;;;13.00;;
48554;SDS011;34336;48.270;16.716;2024-01-07T04:21:20;21.00;;;13.23;;
48554;SDS011;34336;48.270;16.716;2024-01-07T04:23:48;22.05;;;13.25;;
48554;SDS011;34336;48.270;16.716;2024-01-07T04:26:16;20.25;;;12.18;;
48554;SDS011;34336;48.270;16.716;2024-01-07T04:28:44;20.25;;;12.63;;
48554;SDS011;34336;48.270;16.716;2024-01-07T04:31:11;21.30;;;13.32;;
48554;SDS011;34336;48.270;16.716;2024-01-07T04:33:42;20.23;;;12.02;;
48554;SDS011;34336;48.270;16.716;2024-01-07T04:36:10;22.27;;;13.20;;
48554;SDS011;34336;48.270;16.716;2024-01-07T04:38:38;20.23;;;12.75;;
48554;SDS011;34336;48.270;16.716;2024-01-07T04:41:05;21.17;;;12.93;;
48554;SDS011;34336;48.270;16.716;2024-01-07T04:43:34;18.95;;;11.80;;
48554;SDS011;34336;48.270;16.716;2024-01-07T04:46:03;19.63;;;11.90;;
48554;SDS011;34336;48.270;16.716;2024-01-07T04:48:31;22.23;;;12.40;;
48554;SDS011;34336;48.270;16.716;2024-01-07T04:50:59;20.80;;;12.10;;
48554;SDS011;34336;48.270;16.716;2024-01-07T04:53:27;19.75;;;12.27;;
48554;SDS011;34336;48.270;16.716;2024-01-07T04:55:54;17.73;;;11.40;;
48554;SDS011;34336;48.270;16.716;2024-01-07T04:58:22;16.95;;;11.93;;
48554;SDS011;34336;48.270;16.716;2024-01-07T05:00:50;17.77;;;10.82;;
48554;SDS011;34336;48.270;16.716;2024-01-07T05:03:18;20.70;;;12.30;;
48554;SDS011;34336;48.270;16.716;2024-01-07T05:05:45;17.95;;;11.48;;
48554;SDS011;34336;48.270;16.716;2024-01-07T05:08:13;18.38;;;12.02;;
48554;SDS011;34336;48.270;16.716;2024-01-07T05:10:41;19.00;;;11.75;;
48554;SDS011;34336;48.270;16.716;2024-01-07T05:13:08;18.35;;;11.80;;
48554;SDS011;34336;48.270;16.716;2024-01-07T05:15:37;21.38;;;12.38;;
48554;SDS011;34336;48.270;16.716;2024-01-07T05:18:07;18.65;;;10.82;;
48554;SDS011;34336;48.270;16.716;2024-01-07T05:20:36;16.52;;;10.73;;
48554;SDS011;34336;48.270;16.716;2024-01-07T05:23:04;16.85;;;10.88;;
48554;SDS011;34336;48.270;16.716;2024-01-07T05:25:31;14.70;;;9.05;;
48554;SDS011;34336;48.270;16.716;2024-01-07T05:27:59;18.20;;;11.00;;
48554;SDS011;34336;48.270;16.716;2024-01-07T05:30:27;17.50;;;11.60;;
48554;SDS011;34336;48.270;16.716;2024-01-07T05:32:55;18.50;;;11.88;;
48554;SDS011;34336;48.270;16.716;2024-01-07T05:35:22;16.00;;;9.85;;
48554;SDS011;34336;48.270;16.716;2024-01-07T05:37:50;16.13;;;10.68;;
48554;SDS011;34336;48.270;16.716;2024-01-07T05:40:18;14.85;;;10.45;;
48554;SDS011;34336;48.270;16.716;2024-01-07T05:42:45;16.10;;;10.23;;
48554;SDS011;34336;48.270;16.716;2024-01-07T05:45:13;16.40;;;9.70;;
48554;SDS011;34336;48.270;16.716;2024-01-07T05:47:41;15.52;;;9.43;;
48554;SDS011;34336;48.270;16.716;2024-01-07T05:50:08;16.13;;;9.85;;
48554;SDS011;34336;48.270;16.716;2024-01-07T05:52:37;14.52;;;9.23;;
48554;SDS011;34336;48.270;16.716;2024-01-07T05:55:05;15.65;;;9.68;;
48554;SDS011;34336;48.270;16.716;2024-01-07T05:57:32;13.70;;;9.05;;
48554;SDS011;34336;48.270;16.716;2024-01-07T06:00:00;15.45;;;9.65;;
48554;SDS011;34336;48.270;16.716;2024-01-07T06:02:38;15.70;;;9.90;;
48554;SDS011;34336;48.270;16.716;2024-01-07T06:05:07;16.02;;;9.90;;
48554;SDS011;34336;48.270;16.716;2024-01-07T06:07:35;16.70;;;10.52;;
48554;SDS011;34336;48.270;16.716;2024-01-07T06:10:03;16.25;;;10.52;;
48554;SDS011;34336;48.270;16.716;2024-01-07T06:12:30;15.73;;;10.00;;
48554;SDS011;34336;48.270;16.716;2024-01-07T06:14:58;18.63;;;10.00;;
48554;SDS011;34336;48.270;16.716;2024-01-07T06:17:26;15.07;;;9.60;;
48554;SDS011;34336;48.270;16.716;2024-01-07T06:19:54;14.65;;;9.20;;
48554;SDS011;34336;48.270;16.716;2024-01-07T06:22:22;16.27;;;11.07;;
48554;SDS011;34336;48.270;16.716;2024-01-07T06:24:50;14.50;;;9.00;;
48554;SDS011;34336;48.270;16.716;2024-01-07T06:27:17;16.02;;;9.68;;
48554;SDS011;34336;48.270;16.716;2024-01-07T06:29:45;15.32;;;8.68;;
48554;SDS011;34336;48.270;16.716;2024-01-07T06:32:13;13.93;;;9.05;;
48554;SDS011;34336;48.270;16.716;2024-01-07T06:34:40;16.25;;;10.20;;
48554;SDS011;34336;48.270;16.716;2024-01-07T06:37:08;13.63;;;9.13;;
48554;SDS011;34336;48.270;16.716;2024-01-07T06:39:37;13.55;;;9.27;;
48554;SDS011;34336;48.270;16.716;2024-01-07T06:42:05;16.67;;;9.18;;
48554;SDS011;34336;48.270;16.716;2024-01-07T06:44:32;14.80;;;8.88;;
48554;SDS011;34336;48.270;16.716;2024-01-07T06:47:00;13.73;;;8.88;;
48554;SDS011;34336;48.270;16.716;2024-01-07T06:49:28;14.30;;;8.48;;
48554;SDS011;34336;48.270;16.716;2024-01-07T06:51:56;12.05;;;8.45;;
48554;SDS011;34336;48.270;16.716;2024-01-07T06:54:24;13.90;;;8.55;;
48554;SDS011;34336;48.270;16.716;2024-01-07T06:56:52;15.80;;;8.98;;
48554;SDS011;34336;48.270;16.716;2024-01-07T06:59:20;14.77;;;8.65;;
48554;SDS011;34336;48.270;16.716;2024-01-07T07:01:47;13.00;;;8.30;;
48554;SDS011;34336;48.270;16.716;2024-01-07T07:04:15;15.43;;;8.60;;
48554;SDS011;34336;48.270;16.716;2024-01-07T07:06:43;13.02;;;8.80;;
48554;SDS011;34336;48.270;16.716;2024-01-07T07:09:11;12.23;;;7.00;;
48554;SDS011;34336;48.270;16.716;2024-01-07T07:11:39;12.35;;;7.85;;
48554;SDS011;34336;48.270;16.716;2024-01-07T07:14:07;12.30;;;7.93;;
48554;SDS011;34336;48.270;16.716;2024-01-07T07:16:34;13.30;;;8.65;;
48554;SDS011;34336;48.270;16.716;2024-01-07T07:19:02;15.23;;;8.18;;
48554;SDS011;34336;48.270;16.716;2024-01-07T07:21:30;15.23;;;8.90;;
48554;SDS011;34336;48.270;16.716;2024-01-07T07:23:58;14.50;;;8.82;;
48554;SDS011;34336;48.270;16.716;2024-01-07T07:26:25;12.57;;;8.00;;
48554;SDS011;34336;48.270;16.716;2024-01-07T07:28:53;15.52;;;9.30;;
48554;SDS011;34336;48.270;16.716;2024-01-07T07:31:21;14.57;;;8.30;;
48554;SDS011;34336;48.270;16.716;2024-01-07T07:33:48;11.93;;;8.43;;
48554;SDS011;34336;48.270;16.716;2024-01-07T07:36:16;16.55;;;9.25;;
48554;SDS011;34336;48.270;16.716;2024-01-07T07:38:44;13.30;;;7.22;;
48554;SDS011;34336;48.270;16.716;2024-01-07T07:41:12;13.52;;;7.95;;
48554;SDS011;34336;48.270;16.716;2024-01-07T07:43:39;13.85;;;7.40;;
48554;SDS011;34336;48.270;16.716;2024-01-07T07:46:07;13.90;;;8.70;;
48554;SDS011;34336;48.270;16.716;2024-01-07T07:48:35;14.25;;;8.15;;
48554;SDS011;34336;48.270;16.716;2024-01-07T07:51:03;12.65;;;8.07;;
48554;SDS011;34336;48.270;16.716;2024-01-07T07:53:31;13.18;;;7.47;;
48554;SDS011;34336;48.270;16.716;2024-01-07T07:55:58;11.73;;;7.20;;
48554;SDS011;34336;48.270;16.716;2024-01-07T07:58:26;11.75;;;7.25;;
48554;SDS011;34336;48.270;16.716;2024-01-07T08:00:54;12.43;;;7.40;;
48554;SDS011;34336;48.270;16.716;2024-01-07T08:03:22;11.77;;;7.32;;
48554;SDS011;34336;48.270;16.716;2024-01-07T08:05:50;10.82;;;7.10;;
48554;SDS011;34336;48.270;16.716;2024-01-07T08:08:17;13.57;;;8.30;;
48554;SDS011;34336;48.270;16.716;2024-01-07T08:10:45;12.57;;;7.95;;
48554;SDS011;34336;48.270;16.716;2024-01-07T08:13:13;11.48;;;7.03;;
48554;SDS011;34336;48.270;16.716;2024-01-07T08:15:41;15.50;;;8.27;;
48554;SDS011;34336;48.270;16.716;2024-01-07T08:18:09;11.32;;;7.88;;
48554;SDS011;34336;48.270;16.716;2024-01-07T08:20:36;12.82;;;7.60;;
48554;SDS011;34336;48.270;16.716;2024-01-07T08:23:04;9.38;;;6.70;;
48554;SDS011;34336;48.270;16.716;2024-01-07T08:25:32;11.23;;;6.82;;
48554;SDS011;34336;48.270;16.716;2024-01-07T08:28:00;19.98;;;11.68;;
48554;SDS011;34336;48.270;16.716;2024-01-07T08:30:28;10.15;;;7.18;;
48554;SDS011;34336;48.270;16.716;2024-01-07T08:32:56;12.18;;;6.90;;
48554;SDS011;34336;48.270;16.716;2024-01-07T08:35:23;11.73;;;6.70;;
48554;SDS011;34336;48.270;16.716;2024-01-07T08:37:53;14.20;;;7.97;;
48554;SDS011;34336;48.270;16.716;2024-01-07T08:40:20;11.95;;;7.57;;
48554;SDS011;34336;48.270;16.716;2024-01-07T08:42:48;14.23;;;8.75;;
48554;SDS011;34336;48.270;16.716;2024-01-07T08:45:16;15.27;;;7.68;;
48554;SDS011;34336;48.270;16.716;2024-01-07T08:47:45;11.77;;;7.57;;
48554;SDS011;34336;48.270;16.716;2024-01-07T08:50:13;15.40;;;8.68;;
48554;SDS011;34336;48.270;16.716;2024-01-07T08:52:41;13.35;;;7.20;;
48554;SDS011;34336;48.270;16.716;2024-01-07T08:55:09;11.77;;;7.70;;
48554;SDS011;34336;48.270;16.716;2024-01-07T08:57:37;11.77;;;6.88;;
48554;SDS011;34336;48.270;16.716;2024-01-07T09:00:07;13.35;;;7.50;;
48554;SDS011;34336;48.270;16.716;2024-01-07T09:02:35;12.73;;;7.30;;
48554;SDS011;34336;48.270;16.716;2024-01-07T09:05:08;10.40;;;6.80;;
48554;SDS011;34336;48.270;16.716;2024-01-07T09:07:36;12.75;;;7.07;;
48554;SDS011;34336;48.270;16.716;2024-01-07T09:10:04;12.00;;;7.10;;
48554;SDS011;34336;48.270;16.716;2024-01-07T09:12:36;15.00;;;8.40;;
48554;SDS011;34336;48.270;16.716;2024-01-07T09:15:04;13.95;;;7.43;;
48554;SDS011;34336;48.270;16.716;2024-01-07T09:17:36;13.70;;;6.80;;
48554;SDS011;34336;48.270;16.716;2024-01-07T09:20:04;11.63;;;7.13;;
48554;SDS011;34336;48.270;16.716;2024-01-07T09:22:34;11.88;;;7.00;;
48554;SDS011;34336;48.270;16.716;2024-01-07T09:25:03;12.00;;;7.03;;
48554;SDS011;34336;48.270;16.716;2024-01-07T09:27:31;11.43;;;6.80;;
48554;SDS011;34336;48.270;16.716;2024-01-07T09:29:59;11.65;;;7.28;;
48554;SDS011;34336;48.270;16.716;2024-01-07T09:32:28;12.55;;;7.13;;
48554;SDS011;34336;48.270;16.716;2024-01-07T09:34:55;14.60;;;8.15;;
48554;SDS011;34336;48.270;16.716;2024-01-07T09:37:24;13.13;;;7.10;;
48554;SDS011;34336;48.270;16.716;2024-01-07T09:39:52;13.43;;;7.00;;
48554;SDS011;34336;48.270;16.716;2024-01-07T09:42:20;11.07;;;6.85;;
48554;SDS011;34336;48.270;16.716;2024-01-07T09:44:48;11.38;;;6.93;;
48554;SDS011;34336;48.270;16.716;2024-01-07T09:47:17;12.25;;;7.55;;
48554;SDS011;34336;48.270;16.716;2024-01-07T09:49:46;13.55;;;7.47;;
48554;SDS011;34336;48.270;16.716;2024-01-07T09:52:14;11.15;;;6.88;;
48554;SDS011;34336;48.270;16.716;2024-01-07T09:54:44;12.13;;;7.15;;
48554;SDS011;34336;48.270;16.716;2024-01-07T09:57:13;10.60;;;6.47;;
48554;SDS011;34336;48.270;16.716;2024-01-07T09:59:41;10.07;;;6.32;;
48554;SDS011;34336;48.270;16.716;2024-01-07T10:02:09;12.38;;;7.63;;
48554;SDS011;34336;48.270;16.716;2024-01-07T10:04:37;11.35;;;7.15;;
48554;SDS011;34336;48.270;16.716;2024-01-07T10:07:05;11.75;;;7.43;;
48554;SDS011;34336;48.270;16.716;2024-01-07T10:09:33;11.75;;;6.63;;
48554;SDS011;34336;48.270;16.716;2024-01-07T10:12:01;11.77;;;6.82;;
48554;SDS011;34336;48.270;16.716;2024-01-07T10:14:29;12.50;;;7.28;;
48554;SDS011;34336;48.270;16.716;2024-01-07T10:16:59;10.77;;;6.75;;
48554;SDS011;34336;48.270;16.716;2024-01-07T10:19:27;10.60;;;5.90;;
48554;SDS011;34336;48.270;16.716;2024-01-07T10:21:58;24.15;;;13.70;;
48554;SDS011;34336;48.270;16.716;2024-01-07T10:24:26;10.60;;;6.07;;
48554;SDS011;34336;48.270;16.716;2024-01-07T10:26:59;10.25;;;6.18;;
48554;SDS011;34336;48.270;16.716;2024-01-07T10:29:27;12.30;;;6.72;;
48554;SDS011;34336;48.270;16.716;2024-01-07T10:31:57;11.23;;;6.00;;
48554;SDS011;34336;48.270;16.716;2024-01-07T10:34:25;9.23;;;6.15;;
48554;SDS011;34336;48.270;16.716;2024-01-07T10:36:54;10.70;;;6.80;;
48554;SDS011;34336;48.270;16.716;2024-01-07T10:39:22;14.05;;;7.70;;
48554;SDS011;34336;48.270;16.716;2024-01-07T10:41:54;11.00;;;7.57;;
48554;SDS011;34336;48.270;16.716;2024-01-07T10:44:26;10.57;;;6.43;;
48554;SDS011;34336;48.270;16.716;2024-01-07T10:46:54;11.70;;;7.25;;
48554;SDS011;34336;48.270;16.716;2024-01-07T10:49:27;14.32;;;6.25;;
48554;SDS011;34336;48.270;16.716;2024-01-07T10:52:03;10.57;;;6.75;;
48554;SDS011;34336;48.270;16.716;2024-01-07T10:54:34;10.23;;;6.57;;
48554;SDS011;34336;48.270;16.716;2024-01-07T10:57:13;11.43;;;7.18;;
48554;SDS011;34336;48.270;16.716;2024-01-07T10:59:41;11.23;;;7.20;;
48554;SDS011;34336;48.270;16.716;2024-01-07T11:02:09;19.90;;;10.38;;
48554;SDS011;34336;48.270;16.716;2024-01-07T11:10:06;12.77;;;7.05;;
48554;SDS011;34336;48.270;16.716;2024-01-07T11:12:36;10.18;;;6.53;;
48554;SDS011;34336;48.270;16.716;2024-01-07T11:15:04;13.90;;;7.03;;
48554;SDS011;34336;48.270;16.716;2024-01-07T11:20:00;12.73;;;6.90;;
48554;SDS011;34336;48.270;16.716;2024-01-07T11:22:28;12.48;;;7.65;;
48554;SDS011;34336;48.270;16.716;2024-01-07T11:25:00;11.68;;;6.85;;
48554;SDS011;34336;48.270;16.716;2024-01-07T11:27:29;12.60;;;7.20;;
48554;SDS011;34336;48.270;16.716;2024-01-07T11:32:33;11.43;;;6.95;;
48554;SDS011;34336;48.270;16.716;2024-01-07T11:35:02;12.30;;;7.70;;
48554;SDS011;34336;48.270;16.716;2024-01-07T11:37:31;13.75;;;7.85;;
48554;SDS011;34336;48.270;16.716;2024-01-07T11:39:58;13.32;;;7.72;;
48554;SDS011;34336;48.270;16.716;2024-01-07T11:42:26;9.73;;;6.47;;
48554;SDS011;34336;48.270;16.716;2024-01-07T11:44:54;13.77;;;8.10;;
48554;SDS011;34336;48.270;16.716;2024-01-07T11:47:22;13.73;;;8.25;;
48554;SDS011;34336;48.270;16.716;2024-01-07T11:49:51;13.55;;;7.57;;
48554;SDS011;34336;48.270;16.716;2024-01-07T11:52:19;11.73;;;7.18;;
48554;SDS011;34336;48.270;16.716;2024-01-07T11:54:47;21.98;;;9.38;;
48554;SDS011;34336;48.270;16.716;2024-01-07T11:57:15;17.88;;;9.32;;
48554;SDS011;34336;48.270;16.716;2024-01-07T11:59:43;10.60;;;7.25;;
48554;SDS011;34336;48.270;16.716;2024-01-07T12:02:11;41.20;;;22.42;;
48554;SDS011;34336;48.270;16.716;2024-01-07T12:04:38;23.88;;;13.88;;
48554;SDS011;34336;48.270;16.716;2024-01-07T12:07:06;11.57;;;7.00;;
48554;SDS011;34336;48.270;16.716;2024-01-07T12:09:35;11.60;;;6.93;;
48554;SDS011;34336;48.270;16.716;2024-01-07T12:12:04;14.00;;;7.60;;
48554;SDS011;34336;48.270;16.716;2024-01-07T12:14:31;12.77;;;6.95;;
48554;SDS011;34336;48.270;16.716;2024-01-07T12:16:59;11.85;;;7.60;;
48554;SDS011;34336;48.270;16.716;2024-01-07T12:19:28;11.90;;;7.00;;
48554;SDS011;34336;48.270;16.716;2024-01-07T12:22:03;10.77;;;7.10;;
48554;SDS011;34336;48.270;16.716;2024-01-07T12:24:31;10.80;;;7.10;;
48554;SDS011;34336;48.270;16.716;2024-01-07T12:27:05;12.05;;;7.57;;
48554;SDS011;34336;48.270;16.716;2024-01-07T12:29:33;12.23;;;7.72;;
48554;SDS011;34336;48.270;16.716;2024-01-07T12:32:01;11.68;;;7.03;;
48554;SDS011;34336;48.270;16.716;2024-01-07T12:34:30;11.48;;;7.18;;
48554;SDS011;34336;48.270;16.716;2024-01-07T12:36:58;10.60;;;6.85;;
48554;SDS011;34336;48.270;16.716;2024-01-07T12:39:26;13.68;;;6.50;;
48554;SDS011;34336;48.270;16.716;2024-01-07T12:41:54;10.68;;;6.72;;
48554;SDS011;34336;48.270;16.716;2024-01-07T12:44:26;11.75;;;7.55;;
48554;SDS011;34336;48.270;16.716;2024-01-07T12:46:54;11.32;;;7.00;;
48554;SDS011;34336;48.270;16.716;2024-01-07T12:49:22;9.77;;;6.53;;
48554;SDS011;34336;48.270;16.716;2024-01-07T12:51:50;10.65;;;6.85;;
48554;SDS011;34336;48.270;16.716;2024-01-07T12:54:17;10.43;;;6.75;;
48554;SDS011;34336;48.270;16.716;2024-01-07T12:56:46;10.93;;;6.18;;
48554;SDS011;34336;48.270;16.716;2024-01-07T12:59:13;11.68;;;6.47;;
48554;SDS011;34336;48.270;16.716;2024-01-07T13:01:41;13.70;;;7.85;;
48554;SDS011;34336;48.270;16.716;2024-01-07T13:04:09;11.63;;;7.72;;
48554;SDS011;34336;48.270;16.716;2024-01-07T13:06:37;12.63;;;7.85;;
48554;SDS011;34336;48.270;16.716;2024-01-07T13:09:05;11.15;;;6.68;;
48554;SDS011;34336;48.270;16.716;2024-01-07T13:11:33;11.80;;;6.78;;
48554;SDS011;34336;48.270;16.716;2024-01-07T13:14:00;12.18;;;6.88;;
48554;SDS011;34336;48.270;16.716;2024-01-07T13:16:29;15.65;;;9.82;;
48554;SDS011;34336;48.270;16.716;2024-01-07T13:18:57;11.60;;;7.28;;
48554;SDS011;34336;48.270;16.716;2024-01-07T13:21:24;12.45;;;7.70;;
48554;SDS011;34336;48.270;16.716;2024-01-07T13:23:52;26.92;;;13.10;;
48554;SDS011;34336;48.270;16.716;2024-01-07T13:26:20;24.65;;;11.95;;
48554;SDS011;34336;48.270;16.716;2024-01-07T13:28:48;30.38;;;13.13;;
48554;SDS011;34336;48.270;16.716;2024-01-07T13:31:16;13.10;;;8.13;;
48554;SDS011;34336;48.270;16.716;2024-01-07T13:33:44;14.13;;;9.05;;
48554;SDS011;34336;48.270;16.716;2024-01-07T13:36:13;13.85;;;8.93;;
48554;SDS011;34336;48.270;16.716;2024-01-07T13:38:41;13.38;;;8.20;;
48554;SDS011;34336;48.270;16.716;2024-01-07T13:41:11;14.00;;;8.13;;
48554;SDS011;34336;48.270;16.716;2024-01-07T13:43:40;13.85;;;9.38;;
48554;SDS011;34336;48.270;16.716;2024-01-07T13:46:08;18.65;;;10.68;;
48554;SDS011;34336;48.270;16.716;2024-01-07T13:48:36;13.13;;;8.05;;
48554;SDS011;34336;48.270;16.716;2024-01-07T13:51:06;12.98;;;8.60;;
48554;SDS011;34336;48.270;16.716;2024-01-07T13:53:34;10.77;;;7.15;;
48554;SDS011;34336;48.270;16.716;2024-01-07T13:56:01;12.75;;;8.70;;
48554;SDS011;34336;48.270;16.716;2024-01-07T13:58:29;12.57;;;7.97;;
48554;SDS011;34336;48.270;16.716;2024-01-07T14:00:57;10.90;;;7.05;;
48554;SDS011;34336;48.270;16.716;2024-01-07T14:03:25;11.45;;;8.23;;
48554;SDS011;34336;48.270;16.716;2024-01-07T14:05:53;11.10;;;7.22;;
48554;SDS011;34336;48.270;16.716;2024-01-07T14:08:21;12.20;;;7.60;;
48554;SDS011;34336;48.270;16.716;2024-01-07T14:10:49;11.32;;;7.50;;
48554;SDS011;34336;48.270;16.716;2024-01-07T14:13:16;10.60;;;7.43;;
48554;SDS011;34336;48.270;16.716;2024-01-07T14:15:44;13.90;;;8.43;;
48554;SDS011;34336;48.270;16.716;2024-01-07T14:18:12;13.13;;;8.07;;
48554;SDS011;34336;48.270;16.716;2024-01-07T14:20:42;11.93;;;7.13;;
48554;SDS011;34336;48.270;16.716;2024-01-07T14:23:10;11.90;;;8.02;;
48554;SDS011;34336;48.270;16.716;2024-01-07T14:25:38;12.10;;;8.10;;
48554;SDS011;34336;48.270;16.716;2024-01-07T14:28:07;12.00;;;8.00;;
48554;SDS011;34336;48.270;16.716;2024-01-07T14:30:34;12.75;;;7.18;;
48554;SDS011;34336;48.270;16.716;2024-01-07T14:33:02;14.35;;;7.88;;
48554;SDS011;34336;48.270;16.716;2024-01-07T14:35:30;13.77;;;8.05;;